sensor_id;sensor_type;location;lat;lon;timestamp;P1;durP1;ratioP1;P2;durP2;ratioP2
69943;SDS011;57257;48.408;-4.498;2024-03-02T00:01:04;0.00;;;0.00;;
69943;SDS011;57257;48.408;-4.498;2024-03-02T00:03:29;0.00;;;0.00;;
69943;SDS011;57257;48.408;-4.498;2024-03-02T00:05:55;0.00;;;0.00;;
69943;SDS011;57257;48.408;-4.498;2024-03-02T00:08:24;0.00;;;0.00;;
69943;SDS011;57257;48.408;-4.498;2024-03-02T00:10:51;1.00;;;1.00;;
69943;SDS011;57257;48.408;-4.498;2024-03-02T00:13:18;0.00;;;0.00;;
69943;SDS011;57257;48.408;-4.498;2024-03-02T00:15:53;0.00;;;0.00;;
69943;SDS011;57257;48.408;-4.498;2024-03-02T00:18:20;0.00;;;0.00;;
69943;SDS011;57257;48.408;-4.498;2024-03-02T00:20:56;1.00;;;0.00;;
69943;SDS011;57257;48.408;-4.498;2024-03-02T00:23:21;0.00;;;0.00;;
69943;SDS011;57257;48.408;-4.498;2024-03-02T00:25:48;0.00;;;0.00;;
69943;SDS011;57257;48.408;-4.498;2024-03-02T00:28:33;0.00;;;0.00;;
69943;SDS011;57257;48.408;-4.498;2024-03-02T00:31:12;0.00;;;0.00;;
69943;SDS011;57257;48.408;-4.498;2024-03-02T00:36:06;0.00;;;0.00;;
69943;SDS011;57257;48.408;-4.498;2024-03-02T00:38:33;0.00;;;0.00;;
69943;SDS011;57257;48.408;-4.498;2024-03-02T00:41:05;0.00;;;0.00;;
69943;SDS011;57257;48.408;-4.498;2024-03-02T00:43:40;4.00;;;0.00;;
69943;SDS011;57257;48.408;-4.498;2024-03-02T00:46:11;1.00;;;0.00;;
69943;SDS011;57257;48.408;-4.498;2024-03-02T00:48:38;0.00;;;0.00;;
69943;SDS011;57257;48.408;-4.498;2024-03-02T00:51:04;0.00;;;0.00;;
69943;SDS011;57257;48.408;-4.498;2024-03-02T00:53:30;0.00;;;0.00;;
69943;SDS011;57257;48.408;-4.498;2024-03-02T00:55:57;0.00;;;0.00;;
69943;SDS011;57257;48.408;-4.498;2024-03-02T00:58:23;0.00;;;0.00;;
69943;SDS011;57257;48.408;-4.498;2024-03-02T01:00:49;1.00;;;0.00;;
69943;SDS011;57257;48.408;-4.498;2024-03-02T01:03:15;0.25;;;0.25;;
69943;SDS011;57257;48.408;-4.498;2024-03-02T01:05:41;0.00;;;0.00;;
69943;SDS011;57257;48.408;-4.498;2024-03-02T01:08:07;0.00;;;0.00;;
69943;SDS011;57257;48.408;-4.498;2024-03-02T01:10:33;0.00;;;0.00;;
69943;SDS011;57257;48.408;-4.498;2024-03-02T01:12:58;0.00;;;0.00;;
69943;SDS011;57257;48.408;-4.498;2024-03-02T01:15:24;0.00;;;0.00;;
69943;SDS011;57257;48.408;-4.498;2024-03-02T01:17:49;0.00;;;0.00;;
69943;SDS011;57257;48.408;-4.498;2024-03-02T01:20:15;0.00;;;0.00;;
69943;SDS011;57257;48.408;-4.498;2024-03-02T01:22:40;1.00;;;0.00;;
69943;SDS011;57257;48.408;-4.498;2024-03-02T01:25:06;1.00;;;0.25;;
69943;SDS011;57257;48.408;-4.498;2024-03-02T01:27:33;0.00;;;0.00;;
69943;SDS011;57257;48.408;-4.498;2024-03-02T01:29:59;0.25;;;0.00;;
69943;SDS011;57257;48.408;-4.498;2024-03-02T01:32:24;0.00;;;0.00;;
69943;SDS011;57257;48.408;-4.498;2024-03-02T01:34:50;1.00;;;0.00;;
69943;SDS011;57257;48.408;-4.498;2024-03-02T01:37:15;0.25;;;0.00;;
69943;SDS011;57257;48.408;-4.498;2024-03-02T01:39:41;0.00;;;0.00;;
69943;SDS011;57257;48.408;-4.498;2024-03-02T01:42:06;0.00;;;0.00;;
69943;SDS011;57257;48.408;-4.498;2024-03-02T01:44:32;0.00;;;0.00;;
69943;SDS011;57257;48.408;-4.498;2024-03-02T01:46:57;1.00;;;0.00;;
69943;SDS011;57257;48.408;-4.498;2024-03-02T01:49:22;1.00;;;0.00;;
69943;SDS011;57257;48.408;-4.498;2024-03-02T01:51:48;0.00;;;0.00;;
69943;SDS011;57257;48.408;-4.498;2024-03-02T01:54:13;0.00;;;0.00;;
69943;SDS011;57257;48.408;-4.498;2024-03-02T01:56:39;0.00;;;0.00;;
69943;SDS011;57257;48.408;-4.498;2024-03-02T01:59:05;1.00;;;0.00;;
69943;SDS011;57257;48.408;-4.498;2024-03-02T02:01:30;1.00;;;0.00;;
69943;SDS011;57257;48.408;-4.498;2024-03-02T02:03:56;0.00;;;0.00;;
69943;SDS011;57257;48.408;-4.498;2024-03-02T02:06:21;1.00;;;0.00;;
69943;SDS011;57257;48.408;-4.498;2024-03-02T02:08:47;0.00;;;0.00;;
69943;SDS011;57257;48.408;-4.498;2024-03-02T02:11:15;0.00;;;0.00;;
69943;SDS011;57257;48.408;-4.498;2024-03-02T02:13:41;0.00;;;0.00;;
69943;SDS011;57257;48.408;-4.498;2024-03-02T02:16:07;0.00;;;0.00;;
69943;SDS011;57257;48.408;-4.498;2024-03-02T02:18:33;2.00;;;0.00;;
69943;SDS011;57257;48.408;-4.498;2024-03-02T02:21:00;0.00;;;0.00;;
69943;SDS011;57257;48.408;-4.498;2024-03-02T02:23:26;1.00;;;0.00;;
69943;SDS011;57257;48.408;-4.498;2024-03-02T02:25:52;1.00;;;0.00;;
69943;SDS011;57257;48.408;-4.498;2024-03-02T02:28:17;0.50;;;0.00;;
69943;SDS011;57257;48.408;-4.498;2024-03-02T02:30:42;0.00;;;0.00;;
69943;SDS011;57257;48.408;-4.498;2024-03-02T02:33:08;0.00;;;0.00;;
69943;SDS011;57257;48.408;-4.498;2024-03-02T02:35:34;0.00;;;0.00;;
69943;SDS011;57257;48.408;-4.498;2024-03-02T02:37:59;0.00;;;0.00;;
69943;SDS011;57257;48.408;-4.498;2024-03-02T02:40:25;0.00;;;0.00;;
69943;SDS011;57257;48.408;-4.498;2024-03-02T02:42:51;0.00;;;0.00;;
69943;SDS011;57257;48.408;-4.498;2024-03-02T02:45:17;0.75;;;0.00;;
69943;SDS011;57257;48.408;-4.498;2024-03-02T02:47:42;0.00;;;0.00;;
69943;SDS011;57257;48.408;-4.498;2024-03-02T02:50:09;0.00;;;0.00;;
69943;SDS011;57257;48.408;-4.498;2024-03-02T02:52:36;0.50;;;0.50;;
69943;SDS011;57257;48.408;-4.498;2024-03-02T02:55:05;3.00;;;0.00;;
69943;SDS011;57257;48.408;-4.498;2024-03-02T02:57:35;0.75;;;0.00;;
69943;SDS011;57257;48.408;-4.498;2024-03-02T03:00:03;0.00;;;0.00;;
69943;SDS011;57257;48.408;-4.498;2024-03-02T03:02:34;0.00;;;0.00;;
69943;SDS011;57257;48.408;-4.498;2024-03-02T03:05:00;1.00;;;1.00;;
69943;SDS011;57257;48.408;-4.498;2024-03-02T03:07:26;1.00;;;0.00;;
69943;SDS011;57257;48.408;-4.498;2024-03-02T03:09:51;0.00;;;0.00;;
69943;SDS011;57257;48.408;-4.498;2024-03-02T03:12:16;0.00;;;0.00;;
69943;SDS011;57257;48.408;-4.498;2024-03-02T03:14:42;0.50;;;0.00;;
69943;SDS011;57257;48.408;-4.498;2024-03-02T03:17:07;0.00;;;0.00;;
69943;SDS011;57257;48.408;-4.498;2024-03-02T03:19:33;0.00;;;0.00;;
69943;SDS011;57257;48.408;-4.498;2024-03-02T03:21:58;0.00;;;0.00;;
69943;SDS011;57257;48.408;-4.498;2024-03-02T03:24:24;0.00;;;0.00;;
69943;SDS011;57257;48.408;-4.498;2024-03-02T03:26:49;0.00;;;0.00;;
69943;SDS011;57257;48.408;-4.498;2024-03-02T03:29:14;1.00;;;0.00;;
69943;SDS011;57257;48.408;-4.498;2024-03-02T03:31:40;0.00;;;0.00;;
69943;SDS011;57257;48.408;-4.498;2024-03-02T03:34:05;0.50;;;0.00;;
69943;SDS011;57257;48.408;-4.498;2024-03-02T03:36:30;0.00;;;0.00;;
69943;SDS011;57257;48.408;-4.498;2024-03-02T03:38:56;0.00;;;0.00;;
69943;SDS011;57257;48.408;-4.498;2024-03-02T03:41:22;2.00;;;0.00;;
69943;SDS011;57257;48.408;-4.498;2024-03-02T03:43:48;1.00;;;0.00;;
69943;SDS011;57257;48.408;-4.498;2024-03-02T03:46:13;0.00;;;0.00;;
69943;SDS011;57257;48.408;-4.498;2024-03-02T03:48:38;2.75;;;0.50;;
69943;SDS011;57257;48.408;-4.498;2024-03-02T03:51:04;0.00;;;0.00;;
69943;SDS011;57257;48.408;-4.498;2024-03-02T03:53:29;1.50;;;0.00;;
69943;SDS011;57257;48.408;-4.498;2024-03-02T03:55:55;0.00;;;0.00;;
69943;SDS011;57257;48.408;-4.498;2024-03-02T03:58:20;0.00;;;0.00;;
69943;SDS011;57257;48.408;-4.498;2024-03-02T04:00:46;0.00;;;0.00;;
69943;SDS011;57257;48.408;-4.498;2024-03-02T04:03:11;0.75;;;0.00;;
69943;SDS011;57257;48.408;-4.498;2024-03-02T04:05:37;0.00;;;0.00;;
69943;SDS011;57257;48.408;-4.498;2024-03-02T04:08:03;1.75;;;0.00;;
69943;SDS011;57257;48.408;-4.498;2024-03-02T04:10:29;0.75;;;0.00;;
69943;SDS011;57257;48.408;-4.498;2024-03-02T04:12:55;2.25;;;1.00;;
69943;SDS011;57257;48.408;-4.498;2024-03-02T04:15:20;0.00;;;0.00;;
69943;SDS011;57257;48.408;-4.498;2024-03-02T04:17:48;0.00;;;0.00;;
69943;SDS011;57257;48.408;-4.498;2024-03-02T04:20:13;0.00;;;0.00;;
69943;SDS011;57257;48.408;-4.498;2024-03-02T04:22:38;0.00;;;0.00;;
69943;SDS011;57257;48.408;-4.498;2024-03-02T04:25:04;0.00;;;0.00;;
69943;SDS011;57257;48.408;-4.498;2024-03-02T04:27:30;0.50;;;0.00;;
69943;SDS011;57257;48.408;-4.498;2024-03-02T04:29:57;0.00;;;0.00;;
69943;SDS011;57257;48.408;-4.498;2024-03-02T04:32:22;0.00;;;0.00;;
69943;SDS011;57257;48.408;-4.498;2024-03-02T04:34:48;0.00;;;0.00;;
69943;SDS011;57257;48.408;-4.498;2024-03-02T04:37:13;0.00;;;0.00;;
69943;SDS011;57257;48.408;-4.498;2024-03-02T04:39:39;4.00;;;0.00;;
69943;SDS011;57257;48.408;-4.498;2024-03-02T04:42:05;1.00;;;0.00;;
69943;SDS011;57257;48.408;-4.498;2024-03-02T04:44:30;2.00;;;0.00;;
69943;SDS011;57257;48.408;-4.498;2024-03-02T04:46:55;0.75;;;0.25;;
69943;SDS011;57257;48.408;-4.498;2024-03-02T04:49:21;0.00;;;0.00;;
69943;SDS011;57257;48.408;-4.498;2024-03-02T04:51:46;0.75;;;0.75;;
69943;SDS011;57257;48.408;-4.498;2024-03-02T04:54:11;3.00;;;0.00;;
69943;SDS011;57257;48.408;-4.498;2024-03-02T04:56:39;1.00;;;0.00;;
69943;SDS011;57257;48.408;-4.498;2024-03-02T04:59:04;0.00;;;0.00;;
69943;SDS011;57257;48.408;-4.498;2024-03-02T05:01:30;0.00;;;0.00;;
69943;SDS011;57257;48.408;-4.498;2024-03-02T05:03:55;1.00;;;1.00;;
69943;SDS011;57257;48.408;-4.498;2024-03-02T05:06:21;1.00;;;0.00;;
69943;SDS011;57257;48.408;-4.498;2024-03-02T05:08:47;3.75;;;0.00;;
69943;SDS011;57257;48.408;-4.498;2024-03-02T05:11:13;0.50;;;0.00;;
69943;SDS011;57257;48.408;-4.498;2024-03-02T05:13:57;0.00;;;0.00;;
69943;SDS011;57257;48.408;-4.498;2024-03-02T05:16:22;1.00;;;0.50;;
69943;SDS011;57257;48.408;-4.498;2024-03-02T05:18:47;3.00;;;0.50;;
69943;SDS011;57257;48.408;-4.498;2024-03-02T05:21:13;0.00;;;0.00;;
69943;SDS011;57257;48.408;-4.498;2024-03-02T05:23:38;0.00;;;0.00;;
69943;SDS011;57257;48.408;-4.498;2024-03-02T05:26:04;0.50;;;0.50;;
69943;SDS011;57257;48.408;-4.498;2024-03-02T05:28:29;0.00;;;0.00;;
69943;SDS011;57257;48.408;-4.498;2024-03-02T05:30:54;0.00;;;0.00;;
69943;SDS011;57257;48.408;-4.498;2024-03-02T05:33:20;0.00;;;0.00;;
69943;SDS011;57257;48.408;-4.498;2024-03-02T05:35:47;0.00;;;0.00;;
69943;SDS011;57257;48.408;-4.498;2024-03-02T05:38:14;0.00;;;0.00;;
69943;SDS011;57257;48.408;-4.498;2024-03-02T05:40:41;0.00;;;0.00;;
69943;SDS011;57257;48.408;-4.498;2024-03-02T05:43:06;2.00;;;0.00;;
69943;SDS011;57257;48.408;-4.498;2024-03-02T05:45:32;0.00;;;0.00;;
69943;SDS011;57257;48.408;-4.498;2024-03-02T05:47:57;0.00;;;0.00;;
69943;SDS011;57257;48.408;-4.498;2024-03-02T05:50:23;1.00;;;0.00;;
69943;SDS011;57257;48.408;-4.498;2024-03-02T05:52:48;0.00;;;0.00;;
69943;SDS011;57257;48.408;-4.498;2024-03-02T05:55:14;1.00;;;0.00;;
69943;SDS011;57257;48.408;-4.498;2024-03-02T05:57:40;0.00;;;0.00;;
69943;SDS011;57257;48.408;-4.498;2024-03-02T06:00:08;1.00;;;0.00;;
69943;SDS011;57257;48.408;-4.498;2024-03-02T06:02:34;2.50;;;0.00;;
69943;SDS011;57257;48.408;-4.498;2024-03-02T06:05:00;0.00;;;0.00;;
69943;SDS011;57257;48.408;-4.498;2024-03-02T06:07:25;0.00;;;0.00;;
69943;SDS011;57257;48.408;-4.498;2024-03-02T06:09:51;3.00;;;3.00;;
69943;SDS011;57257;48.408;-4.498;2024-03-02T06:12:17;3.00;;;3.00;;
69943;SDS011;57257;48.408;-4.498;2024-03-02T06:14:43;6.50;;;5.50;;
69943;SDS011;57257;48.408;-4.498;2024-03-02T06:17:09;9.75;;;7.00;;
69943;SDS011;57257;48.408;-4.498;2024-03-02T06:19:34;7.50;;;7.50;;
69943;SDS011;57257;48.408;-4.498;2024-03-02T06:22:00;3.00;;;3.00;;
69943;SDS011;57257;48.408;-4.498;2024-03-02T06:24:25;0.50;;;0.00;;
69943;SDS011;57257;48.408;-4.498;2024-03-02T06:26:51;2.00;;;0.00;;
69943;SDS011;57257;48.408;-4.498;2024-03-02T06:29:17;0.00;;;0.00;;
69943;SDS011;57257;48.408;-4.498;2024-03-02T06:31:42;0.00;;;0.00;;
69943;SDS011;57257;48.408;-4.498;2024-03-02T06:34:08;0.00;;;0.00;;
69943;SDS011;57257;48.408;-4.498;2024-03-02T06:36:33;0.00;;;0.00;;
69943;SDS011;57257;48.408;-4.498;2024-03-02T06:38:59;0.00;;;0.00;;
69943;SDS011;57257;48.408;-4.498;2024-03-02T06:41:24;0.00;;;0.00;;
69943;SDS011;57257;48.408;-4.498;2024-03-02T06:43:51;0.00;;;0.00;;
69943;SDS011;57257;48.408;-4.498;2024-03-02T06:46:24;0.00;;;0.00;;
69943;SDS011;57257;48.408;-4.498;2024-03-02T06:48:49;2.00;;;0.00;;
69943;SDS011;57257;48.408;-4.498;2024-03-02T06:51:15;3.00;;;0.00;;
69943;SDS011;57257;48.408;-4.498;2024-03-02T06:53:40;0.00;;;0.00;;
69943;SDS011;57257;48.408;-4.498;2024-03-02T06:56:06;1.00;;;0.00;;
69943;SDS011;57257;48.408;-4.498;2024-03-02T06:58:34;1.00;;;0.00;;
69943;SDS011;57257;48.408;-4.498;2024-03-02T07:00:59;0.00;;;0.00;;
69943;SDS011;57257;48.408;-4.498;2024-03-02T07:03:27;0.00;;;0.00;;
69943;SDS011;57257;48.408;-4.498;2024-03-02T07:05:53;0.00;;;0.00;;
69943;SDS011;57257;48.408;-4.498;2024-03-02T07:08:19;0.00;;;0.00;;
69943;SDS011;57257;48.408;-4.498;2024-03-02T07:10:44;0.00;;;0.00;;
69943;SDS011;57257;48.408;-4.498;2024-03-02T07:13:09;0.00;;;0.00;;
69943;SDS011;57257;48.408;-4.498;2024-03-02T07:15:35;0.00;;;0.00;;
69943;SDS011;57257;48.408;-4.498;2024-03-02T07:18:09;0.00;;;0.00;;
69943;SDS011;57257;48.408;-4.498;2024-03-02T07:20:35;0.50;;;0.00;;
69943;SDS011;57257;48.408;-4.498;2024-03-02T07:23:00;0.00;;;0.00;;
69943;SDS011;57257;48.408;-4.498;2024-03-02T07:25:25;0.00;;;0.00;;
69943;SDS011;57257;48.408;-4.498;2024-03-02T07:27:51;0.00;;;0.00;;
69943;SDS011;57257;48.408;-4.498;2024-03-02T07:30:16;0.00;;;0.00;;
69943;SDS011;57257;48.408;-4.498;2024-03-02T07:32:42;0.00;;;0.00;;
69943;SDS011;57257;48.408;-4.498;2024-03-02T07:35:10;1.00;;;0.00;;
69943;SDS011;57257;48.408;-4.498;2024-03-02T07:37:39;0.00;;;0.00;;
69943;SDS011;57257;48.408;-4.498;2024-03-02T07:40:06;0.00;;;0.00;;
69943;SDS011;57257;48.408;-4.498;2024-03-02T07:42:34;0.00;;;0.00;;
69943;SDS011;57257;48.408;-4.498;2024-03-02T07:45:00;0.00;;;0.00;;
69943;SDS011;57257;48.408;-4.498;2024-03-02T07:47:25;0.00;;;0.00;;
69943;SDS011;57257;48.408;-4.498;2024-03-02T07:49:51;0.00;;;0.00;;
69943;SDS011;57257;48.408;-4.498;2024-03-02T07:52:16;0.00;;;0.00;;
69943;SDS011;57257;48.408;-4.498;2024-03-02T07:54:41;3.00;;;0.00;;
69943;SDS011;57257;48.408;-4.498;2024-03-02T07:57:07;1.00;;;1.00;;
69943;SDS011;57257;48.408;-4.498;2024-03-02T07:59:33;0.75;;;0.00;;
69943;SDS011;57257;48.408;-4.498;2024-03-02T08:01:59;0.00;;;0.00;;
69943;SDS011;57257;48.408;-4.498;2024-03-02T08:04:24;0.00;;;0.00;;
69943;SDS011;57257;48.408;-4.498;2024-03-02T08:06:49;0.50;;;0.50;;
69943;SDS011;57257;48.408;-4.498;2024-03-02T08:09:15;1.50;;;0.00;;
69943;SDS011;57257;48.408;-4.498;2024-03-02T08:11:40;0.00;;;0.00;;
69943;SDS011;57257;48.408;-4.498;2024-03-02T08:14:06;0.00;;;0.00;;
69943;SDS011;57257;48.408;-4.498;2024-03-02T08:16:31;0.00;;;0.00;;
69943;SDS011;57257;48.408;-4.498;2024-03-02T08:18:57;0.75;;;0.75;;
69943;SDS011;57257;48.408;-4.498;2024-03-02T08:21:23;0.00;;;0.00;;
69943;SDS011;57257;48.408;-4.498;2024-03-02T08:23:49;0.00;;;0.00;;
69943;SDS011;57257;48.408;-4.498;2024-03-02T08:26:15;0.00;;;0.00;;
69943;SDS011;57257;48.408;-4.498;2024-03-02T08:28:40;0.00;;;0.00;;
69943;SDS011;57257;48.408;-4.498;2024-03-02T08:31:06;0.00;;;0.00;;
69943;SDS011;57257;48.408;-4.498;2024-03-02T08:33:32;0.50;;;0.00;;
69943;SDS011;57257;48.408;-4.498;2024-03-02T08:35:58;1.00;;;0.00;;
69943;SDS011;57257;48.408;-4.498;2024-03-02T08:38:24;0.00;;;0.00;;
69943;SDS011;57257;48.408;-4.498;2024-03-02T08:40:49;1.50;;;0.00;;
69943;SDS011;57257;48.408;-4.498;2024-03-02T08:43:15;0.00;;;0.00;;
69943;SDS011;57257;48.408;-4.498;2024-03-02T08:45:40;0.00;;;0.00;;
69943;SDS011;57257;48.408;-4.498;2024-03-02T08:48:07;0.00;;;0.00;;
69943;SDS011;57257;48.408;-4.498;2024-03-02T08:50:36;0.00;;;0.00;;
69943;SDS011;57257;48.408;-4.498;2024-03-02T08:53:03;0.00;;;0.00;;
69943;SDS011;57257;48.408;-4.498;2024-03-02T08:55:29;0.00;;;0.00;;
69943;SDS011;57257;48.408;-4.498;2024-03-02T08:57:54;0.00;;;0.00;;
69943;SDS011;57257;48.408;-4.498;2024-03-02T09:00:20;0.00;;;0.00;;
69943;SDS011;57257;48.408;-4.498;2024-03-02T09:02:46;0.00;;;0.00;;
69943;SDS011;57257;48.408;-4.498;2024-03-02T09:05:13;0.00;;;0.00;;
69943;SDS011;57257;48.408;-4.498;2024-03-02T09:07:38;0.00;;;0.00;;
69943;SDS011;57257;48.408;-4.498;2024-03-02T09:10:04;0.00;;;0.00;;
69943;SDS011;57257;48.408;-4.498;2024-03-02T09:12:31;0.75;;;0.75;;
69943;SDS011;57257;48.408;-4.498;2024-03-02T09:14:56;0.00;;;0.00;;
69943;SDS011;57257;48.408;-4.498;2024-03-02T09:17:22;0.00;;;0.00;;
69943;SDS011;57257;48.408;-4.498;2024-03-02T09:19:48;0.00;;;0.00;;
69943;SDS011;57257;48.408;-4.498;2024-03-02T09:22:13;0.00;;;0.00;;
69943;SDS011;57257;48.408;-4.498;2024-03-02T09:24:39;0.00;;;0.00;;
69943;SDS011;57257;48.408;-4.498;2024-03-02T09:27:04;0.00;;;0.00;;
69943;SDS011;57257;48.408;-4.498;2024-03-02T09:29:30;1.00;;;0.00;;
69943;SDS011;57257;48.408;-4.498;2024-03-02T09:31:56;0.00;;;0.00;;
69943;SDS011;57257;48.408;-4.498;2024-03-02T09:34:21;0.25;;;0.25;;
69943;SDS011;57257;48.408;-4.498;2024-03-02T09:36:47;1.00;;;0.00;;
69943;SDS011;57257;48.408;-4.498;2024-03-02T09:39:13;0.00;;;0.00;;
69943;SDS011;57257;48.408;-4.498;2024-03-02T09:41:39;0.00;;;0.00;;
69943;SDS011;57257;48.408;-4.498;2024-03-02T09:44:04;0.75;;;0.00;;
69943;SDS011;57257;48.408;-4.498;2024-03-02T09:46:31;0.00;;;0.00;;
69943;SDS011;57257;48.408;-4.498;2024-03-02T09:48:56;0.00;;;0.00;;
69943;SDS011;57257;48.408;-4.498;2024-03-02T09:51:22;0.00;;;0.00;;
69943;SDS011;57257;48.408;-4.498;2024-03-02T09:53:48;0.25;;;0.00;;
69943;SDS011;57257;48.408;-4.498;2024-03-02T09:56:14;0.00;;;0.00;;
69943;SDS011;57257;48.408;-4.498;2024-03-02T09:58:41;0.00;;;0.00;;
69943;SDS011;57257;48.408;-4.498;2024-03-02T10:01:06;0.00;;;0.00;;
69943;SDS011;57257;48.408;-4.498;2024-03-02T10:03:32;0.00;;;0.00;;
69943;SDS011;57257;48.408;-4.498;2024-03-02T10:06:18;0.00;;;0.00;;
69943;SDS011;57257;48.408;-4.498;2024-03-02T10:08:50;0.00;;;0.00;;
69943;SDS011;57257;48.408;-4.498;2024-03-02T10:11:28;0.00;;;0.00;;
69943;SDS011;57257;48.408;-4.498;2024-03-02T10:16:38;0.00;;;0.00;;
69943;SDS011;57257;48.408;-4.498;2024-03-02T10:19:22;0.00;;;0.00;;
69943;SDS011;57257;48.408;-4.498;2024-03-02T10:21:52;1.00;;;0.00;;
69943;SDS011;57257;48.408;-4.498;2024-03-02T10:24:19;1.50;;;0.00;;
69943;SDS011;57257;48.408;-4.498;2024-03-02T10:26:45;0.00;;;0.00;;
69943;SDS011;57257;48.408;-4.498;2024-03-02T10:29:11;0.00;;;0.00;;
69943;SDS011;57257;48.408;-4.498;2024-03-02T10:31:39;2.50;;;0.00;;
69943;SDS011;57257;48.408;-4.498;2024-03-02T10:34:06;0.00;;;0.00;;
69943;SDS011;57257;48.408;-4.498;2024-03-02T10:36:35;0.00;;;0.00;;
69943;SDS011;57257;48.408;-4.498;2024-03-02T10:39:01;0.00;;;0.00;;
69943;SDS011;57257;48.408;-4.498;2024-03-02T10:41:32;0.00;;;0.00;;
69943;SDS011;57257;48.408;-4.498;2024-03-02T10:43:59;0.00;;;0.00;;
69943;SDS011;57257;48.408;-4.498;2024-03-02T10:46:28;0.00;;;0.00;;
69943;SDS011;57257;48.408;-4.498;2024-03-02T10:48:55;0.00;;;0.00;;
69943;SDS011;57257;48.408;-4.498;2024-03-02T10:51:23;0.00;;;0.00;;
69943;SDS011;57257;48.408;-4.498;2024-03-02T10:53:53;0.00;;;0.00;;
69943;SDS011;57257;48.408;-4.498;2024-03-02T10:56:27;0.00;;;0.00;;
69943;SDS011;57257;48.408;-4.498;2024-03-02T10:59:06;0.00;;;0.00;;
69943;SDS011;57257;48.408;-4.498;2024-03-02T11:01:53;0.00;;;0.00;;
69943;SDS011;57257;48.408;-4.498;2024-03-02T11:04:24;0.00;;;0.00;;
69943;SDS011;57257;48.408;-4.498;2024-03-02T11:06:51;0.75;;;0.00;;
69943;SDS011;57257;48.408;-4.498;2024-03-02T11:09:21;0.25;;;0.00;;
69943;SDS011;57257;48.408;-4.498;2024-03-02T11:11:53;1.00;;;0.00;;
69943;SDS011;57257;48.408;-4.498;2024-03-02T11:14:27;0.00;;;0.00;;
69943;SDS011;57257;48.408;-4.498;2024-03-02T11:16:55;0.00;;;0.00;;
69943;SDS011;57257;48.408;-4.498;2024-03-02T11:19:21;0.00;;;0.00;;
69943;SDS011;57257;48.408;-4.498;2024-03-02T11:21:47;0.00;;;0.00;;
69943;SDS011;57257;48.408;-4.498;2024-03-02T11:26:52;0.00;;;0.00;;
69943;SDS011;57257;48.408;-4.498;2024-03-02T11:32:05;0.00;;;0.00;;
69943;SDS011;57257;48.408;-4.498;2024-03-02T11:34:44;0.00;;;0.00;;
69943;SDS011;57257;48.408;-4.498;2024-03-02T11:37:14;1.00;;;0.00;;
69943;SDS011;57257;48.408;-4.498;2024-03-02T11:39:41;0.00;;;0.00;;
69943;SDS011;57257;48.408;-4.498;2024-03-02T11:42:09;0.00;;;0.00;;
69943;SDS011;57257;48.408;-4.498;2024-03-02T11:44:36;0.00;;;0.00;;
69943;SDS011;57257;48.408;-4.498;2024-03-02T11:47:05;0.00;;;0.00;;
69943;SDS011;57257;48.408;-4.498;2024-03-02T11:52:11;0.00;;;0.00;;
69943;SDS011;57257;48.408;-4.498;2024-03-02T11:54:38;0.00;;;0.00;;
69943;SDS011;57257;48.408;-4.498;2024-03-02T11:57:05;0.00;;;0.00;;
69943;SDS011;57257;48.408;-4.498;2024-03-02T11:59:31;0.00;;;0.00;;
69943;SDS011;57257;48.408;-4.498;2024-03-02T12:01:57;2.25;;;0.75;;
69943;SDS011;57257;48.408;-4.498;2024-03-02T12:04:24;0.00;;;0.00;;
69943;SDS011;57257;48.408;-4.498;2024-03-02T12:07:08;0.00;;;0.00;;
69943;SDS011;57257;48.408;-4.498;2024-03-02T12:09:34;0.00;;;0.00;;
69943;SDS011;57257;48.408;-4.498;2024-03-02T12:12:06;0.00;;;0.00;;
69943;SDS011;57257;48.408;-4.498;2024-03-02T12:14:34;0.00;;;0.00;;
69943;SDS011;57257;48.408;-4.498;2024-03-02T12:17:04;0.00;;;0.00;;
69943;SDS011;57257;48.408;-4.498;2024-03-02T12:19:30;0.00;;;0.00;;
69943;SDS011;57257;48.408;-4.498;2024-03-02T12:21:56;0.00;;;0.00;;
69943;SDS011;57257;48.408;-4.498;2024-03-02T12:24:22;0.00;;;0.00;;
69943;SDS011;57257;48.408;-4.498;2024-03-02T12:26:50;0.00;;;0.00;;
69943;SDS011;57257;48.408;-4.498;2024-03-02T12:29:15;0.00;;;0.00;;
69943;SDS011;57257;48.408;-4.498;2024-03-02T12:31:44;0.00;;;0.00;;
69943;SDS011;57257;48.408;-4.498;2024-03-02T12:34:16;0.00;;;0.00;;
69943;SDS011;57257;48.408;-4.498;2024-03-02T12:36:42;2.25;;;0.00;;
69943;SDS011;57257;48.408;-4.498;2024-03-02T12:39:08;0.00;;;0.00;;
69943;SDS011;57257;48.408;-4.498;2024-03-02T12:41:38;0.00;;;0.00;;
69943;SDS011;57257;48.408;-4.498;2024-03-02T12:44:04;0.75;;;0.00;;
69943;SDS011;57257;48.408;-4.498;2024-03-02T12:46:32;0.00;;;0.00;;
69943;SDS011;57257;48.408;-4.498;2024-03-02T12:49:16;0.00;;;0.00;;
69943;SDS011;57257;48.408;-4.498;2024-03-02T12:51:41;0.00;;;0.00;;
69943;SDS011;57257;48.408;-4.498;2024-03-02T12:54:08;0.00;;;0.00;;
69943;SDS011;57257;48.408;-4.498;2024-03-02T12:56:35;1.00;;;0.00;;
69943;SDS011;57257;48.408;-4.498;2024-03-02T12:59:01;0.00;;;0.00;;
69943;SDS011;57257;48.408;-4.498;2024-03-02T13:01:26;1.00;;;1.00;;
69943;SDS011;57257;48.408;-4.498;2024-03-02T13:03:55;1.00;;;0.00;;
69943;SDS011;57257;48.408;-4.498;2024-03-02T13:06:23;0.00;;;0.00;;
69943;SDS011;57257;48.408;-4.498;2024-03-02T13:08:49;0.00;;;0.00;;
69943;SDS011;57257;48.408;-4.498;2024-03-02T13:11:15;0.00;;;0.00;;
69943;SDS011;57257;48.408;-4.498;2024-03-02T13:13:41;0.00;;;0.00;;
69943;SDS011;57257;48.408;-4.498;2024-03-02T13:16:10;0.00;;;0.00;;
69943;SDS011;57257;48.408;-4.498;2024-03-02T13:18:36;0.00;;;0.00;;
69943;SDS011;57257;48.408;-4.498;2024-03-02T13:21:03;0.00;;;0.00;;
69943;SDS011;57257;48.408;-4.498;2024-03-02T13:23:28;0.00;;;0.00;;
69943;SDS011;57257;48.408;-4.498;2024-03-02T13:25:56;0.00;;;0.00;;
69943;SDS011;57257;48.408;-4.498;2024-03-02T13:28:27;0.00;;;0.00;;
69943;SDS011;57257;48.408;-4.498;2024-03-02T13:30:53;0.00;;;0.00;;
69943;SDS011;57257;48.408;-4.498;2024-03-02T13:33:18;0.00;;;0.00;;
69943;SDS011;57257;48.408;-4.498;2024-03-02T13:35:50;0.00;;;0.00;;
69943;SDS011;57257;48.408;-4.498;2024-03-02T13:38:18;0.00;;;0.00;;
69943;SDS011;57257;48.408;-4.498;2024-03-02T13:40:44;0.00;;;0.00;;
69943;SDS011;57257;48.408;-4.498;2024-03-02T13:43:10;0.00;;;0.00;;
69943;SDS011;57257;48.408;-4.498;2024-03-02T13:45:37;0.00;;;0.00;;
69943;SDS011;57257;48.408;-4.498;2024-03-02T13:48:02;0.00;;;0.00;;
69943;SDS011;57257;48.408;-4.498;2024-03-02T13:50:28;0.00;;;0.00;;
69943;SDS011;57257;48.408;-4.498;2024-03-02T13:52:55;1.00;;;0.00;;
69943;SDS011;57257;48.408;-4.498;2024-03-02T13:55:20;1.00;;;0.00;;
69943;SDS011;57257;48.408;-4.498;2024-03-02T13:57:46;0.00;;;0.00;;
69943;SDS011;57257;48.408;-4.498;2024-03-02T14:00:12;0.00;;;0.00;;
69943;SDS011;57257;48.408;-4.498;2024-03-02T14:02:38;0.00;;;0.00;;
69943;SDS011;57257;48.408;-4.498;2024-03-02T14:05:04;0.00;;;0.00;;
69943;SDS011;57257;48.408;-4.498;2024-03-02T14:07:30;0.00;;;0.00;;
69943;SDS011;57257;48.408;-4.498;2024-03-02T14:09:55;0.00;;;0.00;;
69943;SDS011;57257;48.408;-4.498;2024-03-02T14:12:22;1.00;;;0.00;;
69943;SDS011;57257;48.408;-4.498;2024-03-02T14:14:47;0.00;;;0.00;;
69943;SDS011;57257;48.408;-4.498;2024-03-02T14:17:15;0.00;;;0.00;;
69943;SDS011;57257;48.408;-4.498;2024-03-02T14:19:41;0.00;;;0.00;;
69943;SDS011;57257;48.408;-4.498;2024-03-02T14:22:06;1.00;;;0.00;;
69943;SDS011;57257;48.408;-4.498;2024-03-02T14:24:32;0.00;;;0.00;;
69943;SDS011;57257;48.408;-4.498;2024-03-02T14:26:57;0.00;;;0.00;;
69943;SDS011;57257;48.408;-4.498;2024-03-02T14:29:26;0.00;;;0.00;;
69943;SDS011;57257;48.408;-4.498;2024-03-02T14:31:52;0.00;;;0.00;;
69943;SDS011;57257;48.408;-4.498;2024-03-02T14:34:17;0.00;;;0.00;;
69943;SDS011;57257;48.408;-4.498;2024-03-02T14:36:42;0.00;;;0.00;;
69943;SDS011;57257;48.408;-4.498;2024-03-02T14:39:09;0.00;;;0.00;;
69943;SDS011;57257;48.408;-4.498;2024-03-02T14:41:35;0.00;;;0.00;;
69943;SDS011;57257;48.408;-4.498;2024-03-02T14:44:01;0.00;;;0.00;;